createdAt,value
2022-11-04T00:00:28.685Z,10.29
2022-11-04T00:02:59.652Z,10.28
2022-11-04T00:05:29.244Z,10.35
2022-11-04T00:08:17.748Z,10.21
2022-11-04T00:11:05.913Z,10.26
2022-11-04T00:13:36.067Z,10.03
2022-11-04T00:16:24.218Z,10.16
2022-11-04T00:18:53.840Z,10.19
2022-11-04T00:21:41.469Z,10.14
2022-11-04T00:24:45.263Z,10.16
2022-11-04T00:27:33.111Z,10.14
2022-11-04T00:30:03.002Z,10.19
2022-11-04T00:32:50.999Z,10.16
2022-11-04T00:35:20.775Z,10.18
2022-11-04T00:37:50.385Z,10.22
2022-11-04T00:40:21.509Z,9.99
2022-11-04T00:42:51.071Z,10.01
2022-11-04T00:45:20.640Z,9.96
2022-11-04T00:47:50.199Z,9.90
2022-11-04T00:50:19.797Z,9.96
2022-11-04T00:52:51.524Z,9.87
2022-11-04T00:55:22.628Z,9.96
2022-11-04T00:57:52.093Z,9.91
2022-11-04T01:00:21.700Z,9.94
2022-11-04T01:02:51.225Z,9.97
2022-11-04T01:05:20.814Z,9.96
2022-11-04T01:07:50.536Z,9.99
2022-11-04T01:10:20.119Z,9.91
2022-11-04T01:12:52.841Z,9.90
2022-11-04T01:15:23.216Z,9.96
2022-11-04T01:17:52.896Z,9.99
2022-11-04T01:20:22.403Z,9.92
2022-11-04T01:22:51.994Z,9.82
2022-11-04T01:25:21.661Z,9.76
2022-11-04T01:27:52.666Z,9.78
2022-11-04T01:30:22.298Z,9.92
2022-11-04T01:32:51.792Z,9.94
2022-11-04T01:35:21.376Z,9.89
2022-11-04T01:37:50.950Z,9.92
2022-11-04T01:40:20.656Z,9.88
2022-11-04T01:42:50.210Z,9.83
2022-11-04T01:45:22.015Z,9.76
2022-11-04T01:47:54.932Z,9.83
2022-11-04T01:50:26.115Z,9.71
2022-11-04T01:52:58.285Z,9.68
2022-11-04T01:55:30.143Z,9.71
2022-11-04T01:58:02.186Z,9.68
2022-11-04T02:00:33.373Z,9.68
2022-11-04T02:03:05.572Z,9.55
2022-11-04T02:05:35.381Z,9.36
2022-11-04T02:08:06.145Z,9.32
2022-11-04T02:10:35.749Z,9.26
2022-11-04T02:13:05.646Z,9.22
2022-11-04T02:15:43.067Z,9.15
2022-11-04T02:18:30.611Z,9.27
2022-11-04T02:21:12.868Z,9.34
2022-11-04T02:23:50.604Z,9.21
2022-11-04T02:26:38.737Z,9.35
2022-11-04T02:29:23.413Z,9.30
2022-11-04T02:31:57.024Z,9.35
2022-11-04T02:34:33.924Z,9.27
2022-11-04T02:37:08.536Z,9.23
2022-11-04T02:39:42.161Z,9.30
2022-11-04T02:42:15.406Z,9.09
2022-11-04T02:44:50.061Z,9.17
2022-11-04T02:47:23.025Z,9.32
2022-11-04T02:49:53.741Z,9.29
2022-11-04T02:52:27.146Z,9.22
2022-11-04T02:54:59.766Z,9.17
2022-11-04T02:57:30.920Z,9.19
2022-11-04T03:00:03.500Z,9.22
2022-11-04T03:02:35.722Z,9.27
2022-11-04T03:05:08.343Z,9.23
2022-11-04T03:07:40.007Z,9.17
2022-11-04T03:10:13.977Z,9.26
2022-11-04T03:12:47.441Z,9.24
2022-11-04T03:15:22.460Z,9.05
2022-11-04T03:17:55.885Z,9.16
2022-11-04T03:20:27.437Z,9.03
2022-11-04T03:22:59.902Z,9.17
2022-11-04T03:25:33.168Z,9.22
2022-11-04T03:28:06.799Z,9.17
2022-11-04T03:30:41.168Z,9.14
2022-11-04T03:33:16.883Z,9.19
2022-11-04T03:35:46.612Z,9.15
2022-11-04T03:38:16.260Z,9.08
2022-11-04T03:40:45.861Z,9.07
2022-11-04T03:43:17.959Z,9.10
2022-11-04T03:45:48.984Z,9.05
2022-11-04T03:48:18.853Z,9.02
2022-11-04T03:50:49.255Z,8.98
2022-11-04T03:53:22.532Z,8.94
2022-11-04T03:56:01.008Z,8.94
2022-11-04T03:58:35.359Z,9.03
2022-11-04T04:01:11.822Z,8.86
2022-11-04T04:03:43.918Z,9.00
2022-11-04T04:06:16.815Z,9.09
2022-11-04T04:08:48.491Z,9.11
2022-11-04T04:11:20.975Z,8.98
2022-11-04T04:13:54.565Z,8.96
2022-11-04T04:16:30.434Z,9.01
2022-11-04T04:19:02.974Z,8.92
2022-11-04T04:21:35.923Z,8.74
2022-11-04T04:24:25.472Z,8.82
2022-11-04T04:27:13.782Z,8.67
2022-11-04T04:29:44.965Z,8.71
2022-11-04T04:32:17.525Z,8.66
2022-11-04T04:34:47.066Z,8.73
2022-11-04T04:37:20.271Z,8.71
2022-11-04T04:40:09.655Z,8.60
2022-11-04T04:42:57.315Z,8.61
2022-11-04T04:45:32.661Z,8.68
2022-11-04T04:48:03.569Z,8.66
2022-11-04T04:50:36.803Z,8.60
2022-11-04T04:53:06.725Z,8.55
2022-11-04T04:55:40.679Z,8.52
2022-11-04T04:58:11.555Z,8.43
2022-11-04T05:00:41.213Z,8.45
2022-11-04T05:03:12.336Z,8.50
2022-11-04T05:05:42.101Z,8.31
2022-11-04T05:08:12.250Z,8.37
2022-11-04T05:10:42.124Z,8.31
2022-11-04T05:13:30.010Z,8.33
2022-11-04T05:16:04.765Z,8.40
2022-11-04T05:18:35.838Z,8.30
2022-11-04T05:21:06.112Z,8.34
2022-11-04T05:23:35.768Z,8.31
2022-11-04T05:26:05.673Z,8.28
2022-11-04T05:28:35.300Z,8.36
2022-11-04T05:31:05.736Z,8.30
2022-11-04T05:33:36.768Z,8.32
2022-11-04T05:36:07.076Z,8.39
2022-11-04T05:38:36.796Z,8.35
2022-11-04T05:41:06.805Z,8.39
2022-11-04T05:43:36.596Z,8.28
2022-11-04T05:46:06.293Z,8.40
2022-11-04T05:48:40.508Z,8.45
2022-11-04T05:51:13.673Z,8.46
2022-11-04T05:53:43.386Z,8.42
2022-11-04T05:56:13.281Z,8.53
2022-11-04T05:58:43.148Z,8.61
2022-11-04T06:01:14.211Z,8.76
2022-11-04T06:03:45.285Z,8.66
2022-11-04T06:06:15.069Z,8.76
2022-11-04T06:08:45.383Z,8.80
2022-11-04T06:11:15.061Z,8.76
2022-11-04T06:13:44.652Z,8.67
2022-11-04T06:16:14.173Z,8.79
2022-11-04T06:18:45.449Z,8.81
2022-11-04T06:21:25.188Z,8.86
2022-11-04T06:23:56.774Z,9.01
2022-11-04T06:26:28.382Z,9.12
2022-11-04T06:28:58.279Z,9.18
2022-11-04T06:31:27.896Z,9.20
2022-11-04T06:33:58.812Z,9.32
2022-11-04T06:36:28.462Z,9.33
2022-11-04T06:39:04.121Z,9.47
2022-11-04T06:41:35.675Z,9.61
2022-11-04T06:44:05.415Z,9.62
2022-11-04T06:46:37.371Z,9.56
2022-11-04T06:49:09.221Z,9.67
2022-11-04T06:51:38.835Z,9.60
2022-11-04T06:54:08.329Z,9.76
2022-11-04T06:56:38.122Z,9.73
2022-11-04T06:59:07.949Z,9.96
2022-11-04T07:01:38.202Z,9.98
2022-11-04T07:04:09.280Z,10.02
2022-11-04T07:06:42.789Z,10.17
2022-11-04T07:09:14.805Z,10.33
2022-11-04T07:11:45.751Z,10.36
2022-11-04T07:14:15.736Z,10.35
2022-11-04T07:16:47.017Z,10.34
2022-11-04T07:19:19.408Z,10.29
2022-11-04T07:21:48.984Z,10.35
2022-11-04T07:24:18.571Z,10.35
2022-11-04T07:26:48.268Z,10.51
2022-11-04T07:29:17.823Z,10.68
2022-11-04T07:31:47.475Z,10.79
2022-11-04T07:34:17.000Z,10.90
2022-11-04T07:36:49.318Z,10.84
2022-11-04T07:39:18.941Z,10.98
2022-11-04T07:41:48.433Z,11.08
2022-11-04T07:44:18.064Z,11.12
2022-11-04T07:46:47.789Z,11.20
2022-11-04T07:49:17.398Z,11.23
2022-11-04T07:51:48.659Z,11.07
2022-11-04T07:54:19.749Z,11.05
2022-11-04T07:56:49.289Z,11.21
2022-11-04T07:59:21.451Z,11.26
2022-11-04T08:01:51.197Z,11.03
2022-11-04T08:04:21.057Z,11.23
2022-11-04T08:06:50.631Z,11.38
2022-11-04T08:09:21.944Z,11.49
2022-11-04T08:11:52.388Z,11.52
2022-11-04T08:14:22.812Z,11.49
2022-11-04T08:16:53.161Z,11.49
2022-11-04T08:19:22.836Z,11.33
2022-11-04T08:21:52.631Z,11.37
2022-11-04T08:24:23.669Z,11.50
2022-11-04T08:26:53.306Z,11.58
2022-11-04T08:29:23.792Z,11.64
2022-11-04T08:31:53.518Z,11.66
2022-11-04T08:34:24.325Z,11.71
2022-11-04T08:36:56.062Z,11.72
2022-11-04T08:39:28.202Z,11.84
2022-11-04T08:41:57.861Z,11.93
2022-11-04T08:44:27.430Z,11.90
2022-11-04T08:46:57.271Z,12.01
2022-11-04T08:49:26.805Z,12.14
2022-11-04T08:51:57.239Z,12.19
2022-11-04T08:54:28.468Z,12.21
2022-11-04T08:56:58.220Z,12.32
2022-11-04T08:59:27.789Z,12.29
2022-11-04T09:01:57.612Z,12.34
2022-11-04T09:04:27.423Z,12.38
2022-11-04T09:06:57.540Z,12.40
2022-11-04T09:09:28.545Z,12.44
2022-11-04T09:11:58.585Z,12.53
2022-11-04T09:14:28.534Z,12.59
2022-11-04T09:16:58.549Z,12.58
2022-11-04T09:19:28.719Z,12.63
2022-11-04T09:21:58.293Z,12.67
2022-11-04T09:24:29.927Z,12.71
2022-11-04T09:26:59.515Z,12.74
2022-11-04T09:29:33.597Z,12.83
2022-11-04T09:32:03.113Z,12.81
2022-11-04T09:34:32.749Z,12.87
2022-11-04T09:37:02.343Z,12.96
2022-11-04T09:39:33.338Z,12.98
2022-11-04T09:42:16.498Z,13.02
2022-11-04T09:45:19.550Z,13.09
2022-11-04T09:47:41.923Z,13.08
2022-11-04T09:50:17.441Z,13.07
2022-11-04T09:52:51.358Z,13.21
2022-11-04T09:55:24.228Z,13.28
2022-11-04T09:57:55.457Z,13.43
2022-11-04T10:00:26.335Z,13.59
2022-11-04T10:03:00.860Z,13.67
2022-11-04T10:05:44.055Z,13.69
2022-11-04T10:08:37.584Z,13.72
2022-11-04T10:11:13.255Z,13.65
2022-11-04T10:13:57.406Z,13.80
2022-11-04T10:16:32.505Z,13.96
2022-11-04T10:19:08.983Z,14.06
2022-11-04T10:21:45.968Z,14.00
2022-11-04T10:24:32.528Z,13.88
2022-11-04T10:27:05.303Z,13.96
2022-11-04T10:29:38.132Z,14.09
2022-11-04T10:32:12.858Z,14.16
2022-11-04T10:34:46.432Z,14.20
2022-11-04T10:37:16.040Z,14.27
2022-11-04T10:39:46.853Z,14.37
2022-11-04T10:42:20.825Z,14.39
2022-11-04T10:44:52.962Z,14.47
2022-11-04T10:47:29.030Z,14.47
2022-11-04T10:50:28.329Z,14.55
2022-11-04T10:53:11.244Z,14.58
2022-11-04T10:55:43.913Z,14.60
2022-11-04T10:58:18.196Z,14.67
2022-11-04T11:00:47.833Z,14.61
2022-11-04T11:03:26.014Z,14.63
2022-11-04T11:05:56.292Z,14.66
2022-11-04T11:08:29.069Z,14.64
2022-11-04T11:10:58.869Z,14.67
2022-11-04T11:13:36.101Z,14.67
2022-11-04T11:16:12.877Z,14.74
2022-11-04T11:18:42.861Z,14.78
2022-11-04T11:21:14.046Z,14.86
2022-11-04T11:23:47.294Z,14.89
2022-11-04T11:26:18.329Z,14.84
2022-11-04T11:28:58.352Z,14.80
2022-11-04T11:31:35.802Z,14.77
2022-11-04T11:34:07.712Z,14.84
2022-11-04T11:36:38.806Z,14.91
2022-11-04T11:39:17.087Z,14.84
2022-11-04T11:41:53.501Z,14.87
2022-11-04T11:44:31.774Z,14.84
2022-11-04T11:47:03.098Z,14.79
2022-11-04T11:49:35.846Z,14.84
2022-11-04T11:52:24.213Z,14.80
2022-11-04T11:54:55.617Z,14.78
2022-11-04T11:57:32.164Z,14.87
2022-11-04T12:03:00.103Z,14.89
2022-11-04T12:11:34.416Z,14.89
2022-11-04T12:14:07.028Z,15.04
2022-11-04T12:16:44.823Z,15.00
2022-11-04T12:19:26.259Z,14.98
2022-11-04T12:22:00.623Z,14.98
2022-11-04T12:24:35.742Z,14.95
2022-11-04T12:27:12.993Z,14.91
2022-11-04T12:29:49.949Z,15.07
2022-11-04T12:32:27.044Z,15.20
2022-11-04T12:35:04.775Z,15.20
2022-11-04T12:37:38.717Z,15.18
2022-11-04T12:40:13.017Z,15.18
2022-11-04T12:42:47.586Z,15.28
2022-11-04T12:45:26.101Z,15.27
2022-11-04T12:48:01.975Z,15.29
2022-11-04T12:50:40.952Z,15.41
2022-11-04T12:53:40.745Z,15.45
2022-11-04T12:56:11.388Z,15.43
2022-11-04T12:58:59.412Z,15.45
2022-11-04T13:01:32.659Z,15.42
2022-11-04T13:04:05.801Z,15.36
2022-11-04T13:06:38.718Z,15.36
2022-11-04T13:09:13.559Z,15.36
2022-11-04T13:11:46.793Z,15.30
2022-11-04T13:14:20.667Z,15.31
2022-11-04T13:16:52.823Z,15.27
2022-11-04T13:19:26.203Z,15.21
2022-11-04T13:21:57.382Z,15.21
2022-11-04T13:24:30.627Z,15.25
2022-11-04T13:27:02.868Z,15.23
2022-11-04T13:29:34.663Z,15.18
2022-11-04T13:32:06.539Z,15.28
2022-11-04T13:34:42.135Z,15.26
2022-11-04T13:37:18.195Z,15.19
2022-11-04T13:39:50.191Z,15.22
2022-11-04T13:42:43.664Z,15.21
2022-11-04T13:45:14.375Z,15.13
2022-11-04T13:47:46.885Z,15.10
2022-11-04T13:50:32.718Z,15.11
2022-11-04T13:53:03.225Z,15.05
2022-11-04T13:55:35.494Z,15.01
2022-11-04T13:58:06.230Z,14.96
2022-11-04T14:00:37.454Z,14.95
2022-11-04T14:03:21.961Z,14.92
2022-11-04T14:06:05.028Z,14.90
2022-11-04T14:08:35.079Z,14.87
2022-11-04T14:11:14.043Z,14.82
2022-11-04T14:13:48.280Z,14.80
2022-11-04T14:16:36.885Z,14.76
2022-11-04T14:19:26.472Z,14.74
2022-11-04T14:22:14.061Z,14.69
2022-11-04T14:24:45.731Z,14.63
2022-11-04T14:27:35.142Z,14.62
2022-11-04T14:30:05.326Z,14.63
2022-11-04T14:32:40.181Z,14.59
2022-11-04T14:35:18.213Z,14.55
2022-11-04T14:37:55.812Z,14.53
2022-11-04T14:40:28.871Z,14.51
2022-11-04T14:43:00.269Z,14.46
2022-11-04T14:45:32.776Z,14.40
2022-11-04T14:48:15.792Z,14.40
2022-11-04T14:50:46.804Z,14.36
2022-11-04T14:53:20.686Z,14.37
2022-11-04T14:56:03.459Z,14.35
2022-11-04T14:58:33.216Z,14.29
2022-11-04T15:01:03.764Z,14.27
2022-11-04T15:04:09.936Z,14.22
2022-11-04T15:06:35.174Z,14.18
2022-11-04T15:09:20.100Z,14.16
2022-11-04T15:12:09.155Z,14.13
2022-11-04T15:14:39.533Z,14.05
2022-11-04T15:17:17.516Z,14.01
2022-11-04T15:19:50.298Z,13.98
2022-11-04T15:22:20.764Z,13.97
2022-11-04T15:24:51.648Z,13.95
2022-11-04T15:27:26.696Z,13.95
2022-11-04T15:29:56.520Z,13.86
2022-11-04T15:32:27.888Z,13.84
2022-11-04T15:34:58.067Z,13.82
2022-11-04T15:37:29.562Z,13.80
2022-11-04T15:39:59.585Z,13.78
2022-11-04T15:42:44.693Z,13.78
2022-11-04T15:45:38.289Z,13.79
2022-11-04T15:48:27.517Z,13.78
2022-11-04T15:51:03.536Z,13.75
2022-11-04T15:53:33.696Z,13.72
2022-11-04T15:56:14.564Z,13.68
2022-11-04T15:58:46.548Z,13.65
2022-11-04T16:01:16.911Z,13.64
2022-11-04T16:03:51.481Z,13.62
2022-11-04T16:06:33.693Z,13.62
2022-11-04T16:09:05.466Z,13.59
2022-11-04T16:11:35.254Z,13.60
2022-11-04T16:14:26.629Z,13.59
2022-11-04T16:16:56.545Z,13.54
2022-11-04T16:19:27.929Z,13.52
2022-11-04T16:22:01.918Z,13.48
2022-11-04T16:24:33.252Z,13.45
2022-11-04T16:27:02.866Z,13.38
2022-11-04T16:29:38.234Z,13.37
2022-11-04T16:32:15.152Z,13.33
2022-11-04T16:34:45.832Z,13.28
2022-11-04T16:37:15.552Z,13.24
2022-11-04T16:39:45.760Z,13.24
2022-11-04T16:42:15.747Z,13.22
2022-11-04T16:44:50.644Z,13.21
2022-11-04T16:47:20.382Z,13.19
2022-11-04T16:49:50.030Z,13.17
2022-11-04T16:52:25.531Z,13.12
2022-11-04T16:54:56.671Z,13.10
2022-11-04T16:57:26.590Z,13.03
2022-11-04T16:59:58.209Z,13.04
2022-11-04T17:02:30.855Z,13.01
2022-11-04T17:05:00.551Z,12.94
2022-11-04T17:07:47.406Z,12.82
2022-11-04T17:10:20.663Z,12.80
2022-11-04T17:12:50.909Z,12.81
2022-11-04T17:15:22.761Z,12.80
2022-11-04T17:17:52.729Z,12.73
2022-11-04T17:20:22.732Z,12.75
2022-11-04T17:22:53.006Z,12.70
2022-11-04T17:25:23.790Z,12.69
2022-11-04T17:27:53.743Z,12.64
2022-11-04T17:30:25.258Z,12.53
2022-11-04T17:32:54.935Z,12.51
2022-11-04T17:35:26.036Z,12.50
2022-11-04T17:37:56.027Z,12.34
2022-11-04T17:40:25.845Z,12.38
2022-11-04T17:43:12.991Z,12.35
2022-11-04T17:45:44.468Z,12.28
2022-11-04T17:48:14.351Z,12.29
2022-11-04T17:50:44.060Z,12.30
2022-11-04T17:53:14.041Z,12.33
2022-11-04T17:55:45.133Z,12.22
2022-11-04T17:58:14.768Z,12.23
2022-11-04T18:00:47.005Z,12.14
2022-11-04T18:03:16.827Z,12.02
2022-11-04T18:05:46.494Z,12.09
2022-11-04T18:08:16.219Z,12.07
2022-11-04T18:10:45.827Z,12.01
2022-11-04T18:13:16.115Z,11.99
2022-11-04T18:15:47.366Z,11.94
2022-11-04T18:18:17.061Z,11.90
2022-11-04T18:20:46.846Z,11.83
2022-11-04T18:23:16.617Z,11.81
2022-11-04T18:25:50.559Z,11.70
2022-11-04T18:28:20.463Z,11.65
2022-11-04T18:30:51.601Z,11.70
2022-11-04T18:33:21.204Z,11.72
2022-11-04T18:35:50.777Z,11.64
2022-11-04T18:38:20.388Z,11.63
2022-11-04T18:40:49.964Z,11.50
2022-11-04T18:43:19.527Z,11.46
2022-11-04T18:45:49.307Z,11.43
2022-11-04T18:48:20.322Z,11.43
2022-11-04T18:50:51.368Z,11.39
2022-11-04T18:53:26.750Z,11.39
2022-11-04T18:56:02.098Z,11.30
2022-11-04T18:58:32.575Z,11.29
2022-11-04T19:01:07.617Z,11.19
2022-11-04T19:03:39.476Z,11.20
2022-11-04T19:06:10.014Z,11.18
2022-11-04T19:08:46.298Z,11.08
2022-11-04T19:11:17.395Z,11.12
2022-11-04T19:13:51.313Z,11.05
2022-11-04T19:16:21.668Z,11.01
2022-11-04T19:18:54.660Z,10.96
2022-11-04T19:21:26.791Z,10.97
2022-11-04T19:23:58.363Z,10.90
2022-11-04T19:26:29.012Z,10.91
2022-11-04T19:29:00.112Z,10.92
2022-11-04T19:31:30.404Z,10.79
2022-11-04T19:34:04.114Z,10.86
2022-11-04T19:36:34.348Z,10.86
2022-11-04T19:39:04.938Z,10.83
2022-11-04T19:41:52.219Z,10.69
2022-11-04T19:44:22.607Z,10.67
2022-11-04T19:46:52.685Z,10.67
2022-11-04T19:49:23.611Z,10.67
2022-11-04T19:51:53.415Z,10.68
2022-11-04T19:54:23.242Z,10.71
2022-11-04T19:56:53.195Z,10.68
2022-11-04T19:59:23.020Z,10.63
2022-11-04T20:01:52.809Z,10.63
2022-11-04T20:04:24.026Z,10.58
2022-11-04T20:06:53.676Z,10.45
2022-11-04T20:09:23.473Z,10.50
2022-11-04T20:12:10.864Z,10.36
2022-11-04T20:14:41.153Z,10.29
2022-11-04T20:17:11.350Z,10.34
2022-11-04T20:19:42.464Z,10.36
2022-11-04T20:22:12.116Z,10.19
2022-11-04T20:24:41.710Z,10.09
2022-11-04T20:27:15.082Z,10.19
2022-11-04T20:29:44.720Z,10.21
2022-11-04T20:32:14.877Z,10.29
2022-11-04T20:34:46.073Z,10.26
2022-11-04T20:37:15.695Z,10.17
2022-11-04T20:39:45.603Z,10.23
2022-11-04T20:42:15.440Z,10.11
2022-11-04T20:44:45.160Z,10.17
2022-11-04T20:47:17.481Z,10.14
2022-11-04T20:49:49.328Z,10.12
2022-11-04T20:52:18.965Z,10.10
2022-11-04T20:54:48.687Z,10.10
2022-11-04T20:57:18.296Z,9.94
2022-11-04T20:59:47.893Z,9.91
2022-11-04T21:02:17.756Z,9.99
2022-11-04T21:04:48.779Z,10.04
2022-11-04T21:07:20.095Z,9.99
2022-11-04T21:09:51.157Z,9.90
2022-11-04T21:12:21.651Z,9.95
2022-11-04T21:14:51.860Z,9.94
2022-11-04T21:17:21.847Z,9.79
2022-11-04T21:19:54.387Z,9.75
2022-11-04T21:22:24.354Z,9.69
2022-11-04T21:24:53.941Z,9.69
2022-11-04T21:27:23.516Z,9.67
2022-11-04T21:29:53.098Z,9.68
2022-11-04T21:32:22.833Z,9.71
2022-11-04T21:34:53.807Z,9.69
2022-11-04T21:37:23.671Z,9.66
2022-11-04T21:39:53.555Z,9.51
2022-11-04T21:42:23.141Z,9.59
2022-11-04T21:44:53.068Z,9.37
2022-11-04T21:47:22.665Z,9.47
2022-11-04T21:49:53.638Z,9.52
2022-11-04T21:52:23.304Z,9.53
2022-11-04T21:54:52.842Z,9.56
2022-11-04T21:57:22.584Z,9.58
2022-11-04T21:59:52.214Z,9.54
2022-11-04T22:02:21.944Z,9.45
2022-11-04T22:04:53.160Z,9.43
2022-11-04T22:07:51.637Z,9.43
2022-11-04T22:10:21.324Z,9.32
2022-11-04T22:12:51.656Z,9.19
2022-11-04T22:15:35.471Z,9.22
2022-11-04T22:18:05.237Z,9.30
2022-11-04T22:20:37.631Z,9.30
2022-11-04T22:23:07.310Z,9.22
2022-11-04T22:25:37.005Z,9.24
2022-11-04T22:28:06.685Z,9.13
2022-11-04T22:30:36.454Z,9.14
2022-11-04T22:33:06.044Z,8.92
2022-11-04T22:35:37.001Z,9.05
2022-11-04T22:38:06.544Z,9.09
2022-11-04T22:40:36.143Z,9.14
2022-11-04T22:43:05.684Z,9.21
2022-11-04T22:45:35.247Z,9.16
2022-11-04T22:48:05.008Z,9.18
2022-11-04T22:50:35.302Z,9.13
2022-11-04T22:53:06.458Z,9.01
2022-11-04T22:55:36.718Z,8.93
2022-11-04T22:58:06.318Z,8.98
2022-11-04T23:00:35.819Z,8.92
2022-11-04T23:03:05.452Z,9.06
2022-11-04T23:05:35.204Z,9.03
2022-11-04T23:08:06.143Z,9.09
2022-11-04T23:10:53.013Z,9.13
2022-11-04T23:13:40.340Z,9.02
2022-11-04T23:16:28.245Z,8.92
2022-11-04T23:18:57.792Z,8.76
2022-11-04T23:21:44.925Z,8.90
2022-11-04T23:24:33.367Z,8.84
2022-11-04T23:27:02.941Z,8.86
2022-11-04T23:29:49.934Z,8.92
2022-11-04T23:32:23.218Z,8.96
2022-11-04T23:35:14.053Z,8.82
2022-11-04T23:37:43.658Z,8.95
2022-11-04T23:40:14.578Z,8.82
2022-11-04T23:42:44.295Z,8.84
2022-11-04T23:45:30.881Z,8.79
2022-11-04T23:48:17.403Z,8.88
2022-11-04T23:51:03.966Z,8.97
2022-11-04T23:53:51.218Z,9.03
2022-11-04T23:56:39.988Z,8.98
2022-11-04T23:59:27.845Z,9.05
